Date,TemperatureHighF,TemperatureAvgF,TemperatureLowF,DewpointHighF,DewpointAvgF,DewpointLowF,HumidityHigh,HumidityAvg,HumidityLow,PressureMaxIn,PressureMinIn,WindSpeedMaxMPH,WindSpeedAvgMPH,GustSpeedMaxMPH,PrecipitationSumIn
2013-9-1,81.0,66.1,56.0,59.0,54.7,51.0,88,69,40,29.99,29.93,4,1,9,0.00
2013-9-2,81.0,66.7,57.0,61.0,57.6,54.0,94,75,47,30.00,29.94,4,1,12,0.00
2013-9-3,82.0,65.6,54.0,57.0,53.7,50.0,93,69,34,30.04,29.96,4,1,10,0.00
2013-9-4,83.0,66.3,54.0,57.0,54.3,52.0,96,69,35,30.08,29.98,4,1,12,0.00
2013-9-5,84.0,66.6,54.0,55.0,51.0,44.0,94,63,25,30.05,29.98,3,1,10,0.00
2013-9-6,92.0,72.8,57.0,54.0,48.9,44.0,80,48,20,30.03,29.92,4,1,9,0.00
2013-9-7,94.0,81.6,71.0,49.0,43.0,-99.9,44,28,16,29.95,29.88,4,2,9,0.00
2013-9-8,93.0,78.2,64.0,54.0,47.6,43.0,56,36,20,29.93,29.84,3,1,7,0.00
2013-9-9,96.0,80.9,71.0,52.0,48.4,44.0,45,33,20,29.87,29.77,4,1,9,0.00
2013-9-10,72.0,61.3,53.0,60.0,55.0,49.0,98,82,47,29.96,29.78,3,1,10,0.00
2013-9-11,65.0,60.0,57.0,59.0,57.8,56.0,99,93,80,30.06,29.95,3,1,8,0.02
2013-9-12,81.0,64.3,57.0,63.0,58.5,55.0,99,84,52,30.03,29.92,3,1,10,0.01
2013-9-13,84.0,66.1,54.0,59.0,55.3,52.0,97,72,37,29.95,29.80,4,1,9,0.01
2013-9-14,83.0,64.8,51.0,58.0,53.1,-99.9,94,70,41,29.86,29.77,3,1,10,0.00
2013-9-15,80.0,63.4,50.0,57.0,54.1,49.0,98,75,44,29.90,29.80,4,1,11,0.00
2013-9-16,84.0,66.7,55.0,58.0,54.8,51.0,98,70,36,29.94,29.82,4,1,10,0.01
2013-9-17,79.0,63.7,52.0,53.0,50.7,47.0,92,65,36,29.94,29.84,4,1,10,0.01
2013-9-18,68.0,58.6,53.0,48.0,46.2,44.0,79,65,42,29.94,29.89,1,1,4,0.00
2013-9-19,88.0,71.4,58.0,47.0,40.5,29.0,60,36,15,29.92,29.82,4,1,10,0.00
2013-9-20,76.0,62.1,53.0,60.0,51.4,41.0,98,70,50,29.88,29.80,6,2,12,0.05
2013-9-21,68.0,57.9,51.0,61.0,53.9,-99.9,100,90,59,29.93,29.83,3,2,10,0.58
2013-9-22,75.0,59.3,49.0,53.0,49.1,44.0,98,74,33,30.05,29.93,4,1,9,0.01
2013-9-23,83.0,65.3,53.0,59.0,53.3,49.0,90,68,33,30.07,29.98,4,1,9,0.00
2013-9-24,77.0,63.0,54.0,52.0,49.1,46.0,86,63,35,30.03,29.93,4,2,10,0.00
2013-9-25,71.0,58.1,48.0,48.0,43.8,39.0,91,63,31,29.97,29.86,4,2,10,0.00
2013-9-26,75.0,59.3,47.0,42.0,37.4,28.0,74,48,23,30.05,29.90,3,1,7,0.00
2013-9-27,79.0,65.5,55.0,38.0,34.1,30.0,47,33,17,30.14,30.05,4,2,11,0.00
2013-9-28,80.0,65.6,55.0,53.0,38.8,-99.9,89,43,19,30.14,30.05,4,1,10,0.00
2013-9-29,67.0,58.9,54.0,62.0,56.8,51.0,99,93,81,30.14,30.09,3,1,8,0.10
2013-9-30,68.0,61.0,58.0,65.0,60.3,57.0,100,98,84,30.10,30.03,3,1,9,0.14